Time;durP1;ratioP1;P1;durP2;ratioP2;P2;SDS_P1;SDS_P2;PMS_P1;PMS_P2;Temp;Humidity;BMP_temperature;BMP_pressure;BME280_temperature;BME280_humidity;BME280_pressure;Samples;Min_cycle;Max_cycle;Signal;HPM_P1;HPM_P2
2021/12/16 00:08:59;;;;;;;22.73;9.73;;;;;;;;;;5035125;28;20048;-69
2021/12/16 00:33:33;;;;;;;17.58;9.77;;;;;;;;;;5034217;28;20101;-70
2021/12/16 00:36:00;;;;;;;23.02;10.15;;;;;;;;;;5034707;28;20029;-70
2021/12/16 00:38:27;;;;;;;19.83;9.73;;;;;;;;;;5034894;28;20471;-70
2021/12/16 00:40:55;;;;;;;22.17;11.63;;;;;;;;;;5034871;28;20112;-70
2021/12/16 00:43:33;;;;;;;23.77;11.60;;;;;;;;;;5034364;28;20026;-70
2021/12/16 00:46:44;;;;;;;23.05;11.18;;;;;;;;;;5035173;28;20045;-70
2021/12/16 00:49:31;;;;;;;18.55;10.45;;;;;;;;;;5034731;28;20041;-70
2021/12/16 00:54:49;;;;;;;27.27;15.05;;;;;;;;;;5034919;28;20039;-70
2021/12/16 00:57:24;;;;;;;21.13;9.82;;;;;;;;;;5034131;28;20029;-70
2021/12/16 00:59:52;;;;;;;20.52;10.65;;;;;;;;;;5034557;28;20367;-70
2021/12/16 01:02:38;;;;;;;20.33;10.18;;;;;;;;;;5034276;28;20041;-69
2021/12/16 01:41:08;;;;;;;17.33;8.85;;;;;;;;;;5033399;28;20017;-70
2021/12/16 01:46:37;;;;;;;16.67;8.98;;;;;;;;;;5033276;28;20060;-70
2021/12/16 01:51:52;;;;;;;16.70;8.35;;;;;;;;;;5033491;28;20018;-70
2021/12/16 01:54:52;;;;;;;15.85;7.88;;;;;;;;;;5033278;28;20532;-70
2021/12/16 01:57:30;;;;;;;16.75;8.23;;;;;;;;;;5033369;28;20103;-70
2021/12/16 02:00:04;;;;;;;18.50;8.63;;;;;;;;;;5033421;28;20433;-70
2021/12/16 02:02:50;;;;;;;13.82;8.95;;;;;;;;;;5033776;28;20387;-70
2021/12/16 02:10:16;;;;;;;17.15;7.97;;;;;;;;;;5033442;28;20044;-70
2021/12/16 02:13:38;;;;;;;18.70;8.65;;;;;;;;;;5033390;28;20107;-70
2021/12/16 02:30:18;;;;;;;18.65;7.80;;;;;;;;;;5032873;28;20099;-70
2021/12/16 02:32:33;;;;;;;17.75;8.15;;;;;;;;;;5030026;28;20041;-70
2021/12/16 02:35:12;;;;;;;15.43;7.75;;;;;;;;;;5032642;28;20037;-70
2021/12/16 02:37:45;;;;;;;16.75;8.18;;;;;;;;;;5033748;28;20096;-70
2021/12/16 02:40:12;;;;;;;15.60;7.68;;;;;;;;;;5033258;28;20029;-70
2021/12/16 02:42:52;;;;;;;15.70;6.97;;;;;;;;;;5032641;28;20041;-70
2021/12/16 02:50:48;;;;;;;17.83;7.82;;;;;;;;;;5032951;28;20084;-70
2021/12/16 02:53:15;;;;;;;18.35;9.43;;;;;;;;;;5033215;28;20455;-70
2021/12/16 02:55:41;;;;;;;15.30;6.45;;;;;;;;;;5034788;28;20018;-70
2021/12/16 02:58:07;;;;;;;17.73;7.38;;;;;;;;;;5036445;28;20043;-70
2021/12/16 03:00:37;;;;;;;16.58;7.43;;;;;;;;;;5036863;28;20025;-70
2021/12/16 03:03:04;;;;;;;14.65;6.72;;;;;;;;;;5036462;28;20107;-70
2021/12/16 03:05:30;;;;;;;16.85;7.65;;;;;;;;;;5036699;28;20424;-70
2021/12/16 03:07:56;;;;;;;14.50;7.35;;;;;;;;;;5036636;28;20029;-70
2021/12/16 03:13:03;;;;;;;16.73;7.68;;;;;;;;;;5036874;28;20589;-70
2021/12/16 03:20:45;;;;;;;13.50;6.43;;;;;;;;;;5036414;28;20042;-69
2021/12/16 03:23:31;;;;;;;17.90;6.45;;;;;;;;;;5036361;28;20037;-70
2021/12/16 03:31:46;;;;;;;13.95;6.25;;;;;;;;;;5035824;28;20040;-70
2021/12/16 03:34:26;;;;;;;14.30;6.80;;;;;;;;;;5036176;28;20053;-70
2021/12/16 03:37:24;;;;;;;13.20;6.40;;;;;;;;;;5034882;28;20041;-70
2021/12/16 03:39:50;;;;;;;14.52;6.50;;;;;;;;;;5035296;28;20033;-70
2021/12/16 03:42:23;;;;;;;10.60;5.43;;;;;;;;;;5035915;28;20466;-70
2021/12/16 03:44:56;;;;;;;13.50;6.47;;;;;;;;;;5036194;28;20058;-70
2021/12/16 03:47:25;;;;;;;12.82;6.22;;;;;;;;;;5035479;28;20734;-70
2021/12/16 03:49:52;;;;;;;10.23;5.00;;;;;;;;;;5036022;28;20191;-70
2021/12/16 03:52:18;;;;;;;11.93;5.75;;;;;;;;;;5035457;28;20032;-70
2021/12/16 03:54:49;;;;;;;10.77;4.85;;;;;;;;;;5035702;28;20152;-70
2021/12/16 03:57:17;;;;;;;12.95;5.25;;;;;;;;;;5035889;28;20139;-69
2021/12/16 03:59:43;;;;;;;11.15;5.13;;;;;;;;;;5035361;28;20026;-70
2021/12/16 04:02:11;;;;;;;12.65;5.88;;;;;;;;;;5035774;28;20030;-70
2021/12/16 04:04:38;;;;;;;11.27;5.18;;;;;;;;;;5036126;28;20037;-70
2021/12/16 04:07:04;;;;;;;11.52;5.53;;;;;;;;;;5034989;28;20028;-70
2021/12/16 04:09:32;;;;;;;11.45;5.95;;;;;;;;;;5035518;28;20029;-70
2021/12/16 04:12:12;;;;;;;13.68;6.40;;;;;;;;;;5035640;28;20026;-70
2021/12/16 04:14:39;;;;;;;12.88;5.88;;;;;;;;;;5035192;28;20104;-70
2021/12/16 04:17:06;;;;;;;13.38;6.45;;;;;;;;;;5035848;28;20022;-70
2021/12/16 04:19:33;;;;;;;10.52;5.40;;;;;;;;;;5035247;28;20107;-70
2021/12/16 04:22:02;;;;;;;10.65;5.45;;;;;;;;;;5034862;28;20017;-70
2021/12/16 04:24:29;;;;;;;11.05;4.97;;;;;;;;;;5035251;28;20101;-70
2021/12/16 04:26:56;;;;;;;15.73;6.53;;;;;;;;;;5035182;28;20104;-70
2021/12/16 04:29:23;;;;;;;16.30;6.60;;;;;;;;;;5034720;28;20505;-69
2021/12/16 04:31:50;;;;;;;13.80;6.65;;;;;;;;;;5035146;28;20042;-70
2021/12/16 04:34:16;;;;;;;10.48;5.50;;;;;;;;;;5034674;28;20025;-70
2021/12/16 04:36:43;;;;;;;14.07;5.78;;;;;;;;;;5035008;28;20104;-70
2021/12/16 04:39:11;;;;;;;12.73;6.07;;;;;;;;;;5033743;28;20029;-70
2021/12/16 04:41:38;;;;;;;11.82;6.03;;;;;;;;;;5034513;28;20036;-70
2021/12/16 04:44:07;;;;;;;13.07;6.75;;;;;;;;;;5034765;28;20040;-70
2021/12/16 04:46:34;;;;;;;16.23;7.28;;;;;;;;;;5034789;28;20493;-70
2021/12/16 04:49:00;;;;;;;13.98;6.15;;;;;;;;;;5033116;28;20028;-70
2021/12/16 04:51:29;;;;;;;12.73;6.28;;;;;;;;;;5034784;28;20044;-70
2021/12/16 04:53:55;;;;;;;13.13;6.55;;;;;;;;;;5034674;28;20104;-70
2021/12/16 04:56:22;;;;;;;12.20;5.55;;;;;;;;;;5034237;28;20025;-70
2021/12/16 04:58:49;;;;;;;11.05;5.82;;;;;;;;;;5034880;28;20032;-70
2021/12/16 05:01:16;;;;;;;14.25;5.80;;;;;;;;;;5033280;28;20489;-70
2021/12/16 05:03:43;;;;;;;13.48;6.32;;;;;;;;;;5034035;28;20449;-71
2021/12/16 05:06:09;;;;;;;12.38;6.55;;;;;;;;;;5034497;28;20041;-70
2021/12/16 05:08:36;;;;;;;13.40;6.53;;;;;;;;;;5034580;28;20047;-71
2021/12/16 05:11:04;;;;;;;13.15;6.82;;;;;;;;;;5034014;28;20033;-71
2021/12/16 05:13:31;;;;;;;12.68;6.35;;;;;;;;;;5034365;28;20352;-70
2021/12/16 05:16:01;;;;;;;15.65;7.50;;;;;;;;;;5034213;28;20474;-70
2021/12/16 05:18:32;;;;;;;9.75;5.03;;;;;;;;;;5033495;28;20025;-70
2021/12/16 05:20:59;;;;;;;12.75;6.22;;;;;;;;;;5034473;28;20029;-71
2021/12/16 05:28:38;;;;;;;12.90;5.63;;;;;;;;;;5034453;28;20474;-71
2021/12/16 05:31:05;;;;;;;10.50;5.57;;;;;;;;;;5033644;28;20025;-74
2021/12/16 05:33:31;;;;;;;13.77;6.93;;;;;;;;;;5034246;28;20381;-75
2021/12/16 05:35:58;;;;;;;14.15;7.00;;;;;;;;;;5033981;28;20028;-73
2021/12/16 05:38:26;;;;;;;12.48;6.63;;;;;;;;;;5033505;28;20029;-75
2021/12/16 05:40:53;;;;;;;15.38;6.85;;;;;;;;;;5034194;28;20069;-74
2021/12/16 05:43:22;;;;;;;12.57;7.32;;;;;;;;;;5032465;28;20044;-75
2021/12/16 05:45:48;;;;;;;16.33;7.63;;;;;;;;;;5032152;28;20045;-73
2021/12/16 05:48:16;;;;;;;17.23;8.95;;;;;;;;;;5033754;28;20022;-73
2021/12/16 05:50:45;;;;;;;17.55;9.50;;;;;;;;;;5033687;28;20466;-72
2021/12/16 05:53:11;;;;;;;20.50;11.07;;;;;;;;;;5033290;28;20025;-74
2021/12/16 05:55:37;;;;;;;22.70;10.07;;;;;;;;;;5032443;28;20488;-73
2021/12/16 05:58:05;;;;;;;19.90;10.35;;;;;;;;;;5033667;28;20481;-74
2021/12/16 06:00:33;;;;;;;16.20;7.55;;;;;;;;;;5033180;28;20029;-73
2021/12/16 06:02:59;;;;;;;20.15;9.48;;;;;;;;;;5033438;28;20037;-72
2021/12/16 06:05:26;;;;;;;15.73;8.02;;;;;;;;;;5033342;28;20033;-73
2021/12/16 06:07:53;;;;;;;19.05;9.02;;;;;;;;;;5029815;28;20244;-71
2021/12/16 06:12:52;;;;;;;29.70;12.85;;;;;;;;;;5032670;28;20033;-74
2021/12/16 06:15:35;;;;;;;40.20;16.73;;;;;;;;;;5033155;28;20025;-72
2021/12/16 06:29:01;;;;;;;18.02;8.07;;;;;;;;;;5027098;28;20021;-67
2021/12/16 06:31:28;;;;;;;15.50;7.43;;;;;;;;;;5035730;28;20021;-67
2021/12/16 06:33:54;;;;;;;15.23;9.07;;;;;;;;;;5036172;28;20076;-66
2021/12/16 06:36:20;;;;;;;13.77;7.57;;;;;;;;;;5033462;28;20448;-67
2021/12/16 06:38:47;;;;;;;17.40;8.68;;;;;;;;;;5034176;28;20101;-66
2021/12/16 06:41:13;;;;;;;16.88;9.00;;;;;;;;;;5032746;28;20025;-67
2021/12/16 06:43:39;;;;;;;14.63;8.25;;;;;;;;;;5035058;28;20041;-67
2021/12/16 06:46:10;;;;;;;14.90;8.95;;;;;;;;;;5031283;28;20025;-67
2021/12/16 06:48:39;;;;;;;22.90;10.48;;;;;;;;;;5015388;28;20467;-68
2021/12/16 06:51:13;;;;;;;32.78;13.15;;;;;;;;;;5016492;28;20531;-68
2021/12/16 06:59:31;;;;;;;13.30;7.45;;;;;;;;;;5015498;28;20022;-69
2021/12/16 07:04:56;;;;;;;11.90;6.45;;;;;;;;;;5004604;28;20406;-69
2021/12/16 07:07:23;;;;;;;13.98;7.68;;;;;;;;;;5013628;28;20018;-70
2021/12/16 07:09:49;;;;;;;14.68;8.18;;;;;;;;;;5029973;28;20100;-69
2021/12/16 07:12:23;;;;;;;17.50;9.00;;;;;;;;;;5035861;28;20017;-71
2021/12/16 07:14:50;;;;;;;21.17;11.43;;;;;;;;;;5034712;28;20025;-67
2021/12/16 07:17:17;;;;;;;25.27;13.20;;;;;;;;;;5033701;28;20025;-69
2021/12/16 07:19:44;;;;;;;21.15;11.38;;;;;;;;;;5035876;28;20486;-71
2021/12/16 07:22:12;;;;;;;19.23;9.63;;;;;;;;;;5028643;28;20029;-67
2021/12/16 07:24:39;;;;;;;31.05;13.70;;;;;;;;;;5031804;28;20033;-70
2021/12/16 07:27:06;;;;;;;32.47;16.38;;;;;;;;;;5033174;28;20021;-68
2021/12/16 07:29:32;;;;;;;19.60;11.82;;;;;;;;;;5035090;28;20056;-69
2021/12/16 07:32:02;;;;;;;15.93;8.90;;;;;;;;;;5035368;28;20029;-69
2021/12/16 07:34:28;;;;;;;15.98;9.27;;;;;;;;;;5035540;28;20028;-68
2021/12/16 07:36:54;;;;;;;14.68;8.77;;;;;;;;;;5034908;28;20075;-68
2021/12/16 07:39:28;;;;;;;14.13;8.27;;;;;;;;;;5034676;28;20021;-68
2021/12/16 07:41:55;;;;;;;19.73;9.63;;;;;;;;;;5034221;28;20100;-67
2021/12/16 07:44:22;;;;;;;27.90;14.68;;;;;;;;;;5034557;28;20430;-67
2021/12/16 07:46:50;;;;;;;12.35;6.93;;;;;;;;;;5035108;28;20030;-67
2021/12/16 07:49:18;;;;;;;12.40;7.20;;;;;;;;;;5035031;28;20028;-67
2021/12/16 07:51:44;;;;;;;17.20;9.00;;;;;;;;;;5034254;28;20032;-65
2021/12/16 07:54:12;;;;;;;16.90;8.98;;;;;;;;;;5026714;28;20033;-66
2021/12/16 07:56:38;;;;;;;23.67;11.45;;;;;;;;;;5022958;28;20033;-68
2021/12/16 07:59:05;;;;;;;17.25;9.57;;;;;;;;;;5013374;28;20102;-68
2021/12/16 08:01:31;;;;;;;18.80;9.55;;;;;;;;;;5015202;28;20028;-67
2021/12/16 08:03:58;;;;;;;13.20;7.20;;;;;;;;;;5011142;28;20057;-69
2021/12/16 08:06:26;;;;;;;13.43;6.68;;;;;;;;;;5026280;28;20119;-68
2021/12/16 08:08:55;;;;;;;16.52;7.70;;;;;;;;;;5030851;28;20030;-68
2021/12/16 08:11:21;;;;;;;11.98;6.65;;;;;;;;;;5029449;28;20458;-67
2021/12/16 08:13:48;;;;;;;20.00;8.63;;;;;;;;;;5017228;28;20025;-66
2021/12/16 08:16:14;;;;;;;16.95;8.98;;;;;;;;;;5029108;28;20104;-65
2021/12/16 08:18:40;;;;;;;17.90;8.45;;;;;;;;;;5029127;28;20037;-67
2021/12/16 08:21:06;;;;;;;17.80;8.32;;;;;;;;;;5022788;28;20030;-68
2021/12/16 08:23:33;;;;;;;17.70;10.18;;;;;;;;;;5029357;28;20413;-69
2021/12/16 08:25:59;;;;;;;16.63;7.75;;;;;;;;;;5032518;28;20021;-69
2021/12/16 08:28:28;;;;;;;17.83;9.95;;;;;;;;;;5016261;28;20077;-69
2021/12/16 08:30:54;;;;;;;19.08;10.85;;;;;;;;;;5012272;28;20018;-67
2021/12/16 08:33:21;;;;;;;11.15;6.50;;;;;;;;;;5013328;28;20628;-68
2021/12/16 08:35:48;;;;;;;14.52;7.55;;;;;;;;;;5032973;28;20033;-67
2021/12/16 08:38:17;;;;;;;11.05;6.03;;;;;;;;;;5033020;28;20083;-68
2021/12/16 08:40:44;;;;;;;16.58;9.30;;;;;;;;;;5033348;28;20042;-68
2021/12/16 08:43:11;;;;;;;12.88;7.05;;;;;;;;;;5034363;28;20030;-68
2021/12/16 08:45:38;;;;;;;16.40;8.63;;;;;;;;;;5034236;28;20467;-68
2021/12/16 08:48:05;;;;;;;11.57;5.75;;;;;;;;;;5034092;28;20036;-69
2021/12/16 08:50:33;;;;;;;12.23;7.03;;;;;;;;;;5033969;28;20025;-72
2021/12/16 08:53:00;;;;;;;11.07;6.72;;;;;;;;;;5033220;28;20057;-67
2021/12/16 08:55:26;;;;;;;13.20;7.15;;;;;;;;;;5033720;28;20493;-68
2021/12/16 08:57:53;;;;;;;14.50;9.30;;;;;;;;;;5028695;28;20033;-68
2021/12/16 09:00:21;;;;;;;21.92;11.77;;;;;;;;;;5031851;28;20037;-68
2021/12/16 09:02:48;;;;;;;19.48;9.63;;;;;;;;;;5028771;28;20026;-68
2021/12/16 09:05:14;;;;;;;19.55;10.50;;;;;;;;;;5029414;28;20040;-68
2021/12/16 09:07:45;;;;;;;16.92;10.43;;;;;;;;;;5032073;28;20029;-69
2021/12/16 09:10:12;;;;;;;16.20;7.13;;;;;;;;;;5032171;28;20026;-67
2021/12/16 09:12:49;;;;;;;12.13;6.38;;;;;;;;;;5030975;28;20108;-66
2021/12/16 09:15:16;;;;;;;15.85;7.93;;;;;;;;;;5030264;28;20580;-67
2021/12/16 09:17:42;;;;;;;16.42;7.70;;;;;;;;;;5029741;28;20599;-69
2021/12/16 09:20:09;;;;;;;11.88;5.68;;;;;;;;;;5030429;28;20080;-68
2021/12/16 09:22:36;;;;;;;11.30;6.28;;;;;;;;;;5029357;28;20022;-66
2021/12/16 09:25:04;;;;;;;18.40;9.23;;;;;;;;;;5030665;28;20477;-68
2021/12/16 09:27:31;;;;;;;17.65;10.63;;;;;;;;;;5031413;28;20028;-68
2021/12/16 09:29:57;;;;;;;9.60;5.95;;;;;;;;;;5024185;28;20445;-70
2021/12/16 09:32:27;;;;;;;12.05;6.90;;;;;;;;;;5011840;28;20057;-69
2021/12/16 09:34:53;;;;;;;12.07;6.15;;;;;;;;;;5013723;28;20030;-71
2021/12/16 09:37:20;;;;;;;21.48;11.95;;;;;;;;;;5027059;28;20447;-72
2021/12/16 09:39:46;;;;;;;10.63;6.75;;;;;;;;;;5013078;28;20022;-69
2021/12/16 09:42:12;;;;;;;19.83;11.98;;;;;;;;;;5018246;28;20440;-66
2021/12/16 09:44:39;;;;;;;17.88;8.30;;;;;;;;;;5018108;28;20038;-67
2021/12/16 09:47:07;;;;;;;12.75;6.60;;;;;;;;;;5013230;28;20033;-67
2021/12/16 09:49:33;;;;;;;10.90;5.65;;;;;;;;;;5013456;28;20482;-69
2021/12/16 09:52:01;;;;;;;17.88;10.25;;;;;;;;;;5013365;28;20029;-67
2021/12/16 09:54:29;;;;;;;17.20;9.80;;;;;;;;;;5032353;28;20071;-69
2021/12/16 09:56:56;;;;;;;15.18;7.65;;;;;;;;;;5032307;28;20473;-69
2021/12/16 09:59:23;;;;;;;10.23;5.85;;;;;;;;;;5031959;28;20104;-69
2021/12/16 10:01:51;;;;;;;12.50;7.90;;;;;;;;;;5032699;28;20473;-67
2021/12/16 10:04:23;;;;;;;16.38;7.75;;;;;;;;;;5032321;28;20037;-68
2021/12/16 10:06:52;;;;;;;20.08;10.15;;;;;;;;;;5022966;28;20022;-68
2021/12/16 10:09:19;;;;;;;24.17;11.48;;;;;;;;;;5015786;28;20034;-67
2021/12/16 10:11:46;;;;;;;22.73;11.75;;;;;;;;;;5024785;28;20100;-65
2021/12/16 10:19:25;;;;;;;27.15;14.23;;;;;;;;;;5009989;28;20061;-65
2021/12/16 10:21:53;;;;;;;19.02;10.43;;;;;;;;;;5010744;28;20037;-64
2021/12/16 10:24:26;;;;;;;23.67;12.35;;;;;;;;;;5011280;28;20508;-66
2021/12/16 10:27:08;;;;;;;16.92;9.25;;;;;;;;;;5011006;28;20041;-65
2021/12/16 10:29:39;;;;;;;17.17;9.45;;;;;;;;;;5011937;28;20022;-65
2021/12/16 10:32:06;;;;;;;14.63;7.65;;;;;;;;;;5012615;28;20025;-66
2021/12/16 10:34:32;;;;;;;14.18;7.55;;;;;;;;;;5009814;28;20034;-65
2021/12/16 10:36:59;;;;;;;16.20;8.63;;;;;;;;;;5011706;28;20037;-65
2021/12/16 10:39:26;;;;;;;14.55;7.20;;;;;;;;;;5012505;28;20030;-69
2021/12/16 10:41:56;;;;;;;16.23;8.68;;;;;;;;;;5012711;28;20026;-67
2021/12/16 10:44:30;;;;;;;13.43;6.78;;;;;;;;;;5024096;28;20600;-67
2021/12/16 10:47:01;;;;;;;10.45;4.90;;;;;;;;;;5032456;28;20021;-69
2021/12/16 10:49:38;;;;;;;15.02;7.45;;;;;;;;;;5032314;28;20057;-67
2021/12/16 10:52:15;;;;;;;15.90;8.85;;;;;;;;;;5032620;28;20397;-67
2021/12/16 10:54:43;;;;;;;23.25;11.60;;;;;;;;;;5032402;28;20101;-67
2021/12/16 10:57:11;;;;;;;19.27;9.43;;;;;;;;;;5032340;28;20100;-65
2021/12/16 10:59:44;;;;;;;11.32;5.13;;;;;;;;;;5032676;28;20030;-66
2021/12/16 11:02:12;;;;;;;13.40;7.10;;;;;;;;;;5032073;28;20075;-68
2021/12/16 11:04:47;;;;;;;17.35;7.50;;;;;;;;;;5032360;28;20385;-65
2021/12/16 11:07:16;;;;;;;14.50;7.25;;;;;;;;;;5028004;28;20022;-68
2021/12/16 11:09:57;;;;;;;12.50;6.80;;;;;;;;;;5012397;28;20029;-67
2021/12/16 11:12:31;;;;;;;16.98;9.30;;;;;;;;;;5027422;28;20363;-67
2021/12/16 11:15:06;;;;;;;11.52;6.95;;;;;;;;;;5031225;28;20052;-67
2021/12/16 11:17:35;;;;;;;15.65;7.97;;;;;;;;;;5034603;28;20021;-68
2021/12/16 11:20:10;;;;;;;16.52;8.77;;;;;;;;;;5022804;28;20406;-68
2021/12/16 11:22:38;;;;;;;12.55;7.80;;;;;;;;;;5014571;28;20024;-68
2021/12/16 11:25:13;;;;;;;12.98;6.97;;;;;;;;;;5033598;28;20080;-68
2021/12/16 11:27:40;;;;;;;21.67;10.20;;;;;;;;;;5032176;28;20382;-67
2021/12/16 11:30:41;;;;;;;17.63;8.70;;;;;;;;;;5032768;28;20267;-67
2021/12/16 11:33:10;;;;;;;19.95;10.43;;;;;;;;;;5012633;28;20582;-67
2021/12/16 11:35:47;;;;;;;14.93;8.30;;;;;;;;;;5030346;28;20033;-66
2021/12/16 11:38:33;;;;;;;14.27;8.65;;;;;;;;;;5035141;28;20021;-66
2021/12/16 11:41:02;;;;;;;15.30;8.60;;;;;;;;;;5031672;28;20022;-68
2021/12/16 11:43:51;;;;;;;26.73;14.70;;;;;;;;;;5033200;28;20104;-67
2021/12/16 11:46:22;;;;;;;18.05;10.52;;;;;;;;;;5033730;28;20085;-68
2021/12/16 11:48:49;;;;;;;21.30;10.13;;;;;;;;;;5033928;28;20029;-69
2021/12/16 11:51:24;;;;;;;17.33;8.82;;;;;;;;;;5034195;28;20029;-67
2021/12/16 11:54:02;;;;;;;22.08;12.30;;;;;;;;;;5034879;28;20507;-67
2021/12/16 11:56:37;;;;;;;18.13;9.82;;;;;;;;;;5035224;28;20036;-70
2021/12/16 11:59:03;;;;;;;20.83;10.57;;;;;;;;;;5034063;28;20030;-68
2021/12/16 12:01:30;;;;;;;22.45;10.18;;;;;;;;;;5034660;28;20096;-68
2021/12/16 12:04:04;;;;;;;16.92;10.05;;;;;;;;;;5034920;28;20043;-67
2021/12/16 12:06:31;;;;;;;21.42;11.50;;;;;;;;;;5032734;28;20024;-67
2021/12/16 12:08:58;;;;;;;15.70;9.00;;;;;;;;;;5033695;28;20029;-68
2021/12/16 12:11:29;;;;;;;23.33;11.13;;;;;;;;;;5033591;28;20022;-66
2021/12/16 12:14:00;;;;;;;17.17;8.82;;;;;;;;;;5033125;28;20021;-66
2021/12/16 12:16:29;;;;;;;13.68;8.75;;;;;;;;;;5032737;28;20032;-68
2021/12/16 12:19:00;;;;;;;16.35;8.63;;;;;;;;;;5032181;28;20130;-68
2021/12/16 12:21:30;;;;;;;18.30;10.30;;;;;;;;;;5033049;28;20033;-66
2021/12/16 12:24:02;;;;;;;12.57;7.00;;;;;;;;;;5033013;28;20029;-68
2021/12/16 12:26:29;;;;;;;13.02;7.32;;;;;;;;;;5033065;28;20014;-67
2021/12/16 12:29:01;;;;;;;15.55;8.98;;;;;;;;;;5033983;28;20032;-65
2021/12/16 12:31:29;;;;;;;13.60;8.05;;;;;;;;;;5034571;28;20026;-65
2021/12/16 12:33:55;;;;;;;14.68;8.55;;;;;;;;;;5032880;28;20030;-66
2021/12/16 12:36:22;;;;;;;16.65;8.75;;;;;;;;;;5034656;28;20148;-67
2021/12/16 12:38:48;;;;;;;15.88;8.93;;;;;;;;;;5034089;28;20749;-68
2021/12/16 12:41:15;;;;;;;19.52;10.20;;;;;;;;;;5033104;28;20470;-68
2021/12/16 12:43:41;;;;;;;17.92;10.13;;;;;;;;;;5034764;28;20052;-68
2021/12/16 12:46:10;;;;;;;17.88;9.18;;;;;;;;;;5034653;28;20017;-66
2021/12/16 12:48:38;;;;;;;18.67;9.50;;;;;;;;;;5032985;28;20029;-66
2021/12/16 12:51:05;;;;;;;13.90;7.68;;;;;;;;;;5034442;28;20470;-66
2021/12/16 12:53:47;;;;;;;19.15;10.50;;;;;;;;;;5034535;28;20497;-66
2021/12/16 12:56:22;;;;;;;15.77;9.15;;;;;;;;;;5034524;28;20498;-68
2021/12/16 12:58:50;;;;;;;17.95;10.77;;;;;;;;;;5034668;28;20025;-67
2021/12/16 13:01:16;;;;;;;19.42;11.10;;;;;;;;;;5034091;28;20021;-67
2021/12/16 13:03:43;;;;;;;14.15;7.20;;;;;;;;;;5034195;28;20112;-67
2021/12/16 13:06:14;;;;;;;15.90;9.90;;;;;;;;;;5033054;28;20026;-67
2021/12/16 13:08:42;;;;;;;12.82;7.45;;;;;;;;;;5033975;28;20560;-68
2021/12/16 13:11:14;;;;;;;17.80;9.95;;;;;;;;;;5034255;28;20029;-66
2021/12/16 13:14:18;;;;;;;18.38;9.82;;;;;;;;;;5034143;28;20026;-67
2021/12/16 13:25:56;;;;;;;13.07;7.85;;;;;;;;;;5033888;28;20049;-66
2021/12/16 13:28:16;;;;;;;20.23;9.38;;;;;;;;;;5033755;28;20033;-66
2021/12/16 13:30:54;;;;;;;19.17;11.73;;;;;;;;;;5033493;28;20029;-67
2021/12/16 13:33:26;;;;;;;23.48;10.95;;;;;;;;;;5033863;28;20033;-66
2021/12/16 13:36:06;;;;;;;30.08;18.20;;;;;;;;;;5033898;28;20363;-65
2021/12/16 13:38:40;;;;;;;24.83;14.30;;;;;;;;;;5033367;28;20021;-66
2021/12/16 13:41:09;;;;;;;18.83;12.23;;;;;;;;;;5033748;28;20097;-65
2021/12/16 13:43:37;;;;;;;14.50;9.02;;;;;;;;;;5033100;28;20044;-67
2021/12/16 13:46:31;;;;;;;15.77;8.73;;;;;;;;;;5033463;28;20022;-67
2021/12/16 14:03:41;;;;;;;18.33;10.85;;;;;;;;;;5033382;28;20037;-69
2021/12/16 14:06:18;;;;;;;18.02;10.68;;;;;;;;;;5031764;28;20124;-69
2021/12/16 14:08:49;;;;;;;19.08;12.55;;;;;;;;;;5033355;28;20108;-70
2021/12/16 14:14:47;;;;;;;18.55;12.00;;;;;;;;;;5033399;28;20083;-69
2021/12/16 14:17:44;;;;;;;30.90;18.25;;;;;;;;;;5032056;28;20030;-69
2021/12/16 14:23:34;;;;;;;25.58;15.07;;;;;;;;;;5033450;28;20040;-70
2021/12/16 14:40:01;;;;;;;25.83;13.38;;;;;;;;;;5032892;28;20421;-70
2021/12/16 14:45:28;;;;;;;20.13;12.45;;;;;;;;;;5033420;28;20076;-70
2021/12/16 14:48:10;;;;;;;18.47;11.50;;;;;;;;;;5032540;28;20437;-69
2021/12/16 14:50:39;;;;;;;26.80;13.98;;;;;;;;;;5033039;28;20481;-69
2021/12/16 14:53:14;;;;;;;24.98;14.25;;;;;;;;;;5037068;28;20032;-70
2021/12/16 14:55:40;;;;;;;28.25;15.32;;;;;;;;;;5036583;28;20029;-70
2021/12/16 14:58:06;;;;;;;17.00;9.88;;;;;;;;;;5036948;28;20482;-70
2021/12/16 15:00:40;;;;;;;21.20;12.23;;;;;;;;;;5036377;28;20026;-70
2021/12/16 15:03:11;;;;;;;33.95;18.20;;;;;;;;;;5036994;28;20021;-69
2021/12/16 15:05:43;;;;;;;28.10;15.27;;;;;;;;;;5037103;28;20029;-70
2021/12/16 15:08:22;;;;;;;16.52;9.10;;;;;;;;;;5036563;28;20040;-70
2021/12/16 15:10:48;;;;;;;23.17;12.18;;;;;;;;;;5038614;28;20025;-69
2021/12/16 15:13:25;;;;;;;19.08;11.32;;;;;;;;;;5036511;28;20071;-72
2021/12/16 15:16:25;;;;;;;21.10;12.73;;;;;;;;;;5036380;28;20551;-70
2021/12/16 15:35:57;;;;;;;18.42;10.48;;;;;;;;;;5033758;28;20079;-71
2021/12/16 15:43:23;;;;;;;23.70;12.98;;;;;;;;;;5036210;28;20052;-71
2021/12/16 15:45:50;;;;;;;18.30;10.32;;;;;;;;;;5036358;28;20082;-70
2021/12/16 15:48:20;;;;;;;18.67;9.82;;;;;;;;;;5036107;28;20060;-70
2021/12/16 15:50:52;;;;;;;22.88;13.40;;;;;;;;;;5035666;28;20021;-72
2021/12/16 15:53:20;;;;;;;24.52;15.07;;;;;;;;;;5036014;28;20045;-68
2021/12/16 15:55:49;;;;;;;20.23;11.43;;;;;;;;;;5035838;28;20025;-69
2021/12/16 15:58:18;;;;;;;25.77;14.05;;;;;;;;;;5035426;28;20018;-69
2021/12/16 16:00:47;;;;;;;30.60;17.85;;;;;;;;;;5035718;28;20056;-70
2021/12/16 16:03:14;;;;;;;28.00;16.98;;;;;;;;;;5035728;28;20462;-70
2021/12/16 16:05:45;;;;;;;24.33;14.00;;;;;;;;;;5034102;28;20030;-70
2021/12/16 16:08:13;;;;;;;18.52;11.75;;;;;;;;;;5035665;28;20190;-72
2021/12/16 16:10:40;;;;;;;16.70;9.75;;;;;;;;;;5035547;28;20026;-69
2021/12/16 16:13:15;;;;;;;17.80;10.10;;;;;;;;;;5035473;28;20029;-70
2021/12/16 16:15:43;;;;;;;21.90;12.88;;;;;;;;;;5035471;28;20025;-69
2021/12/16 16:20:38;;;;;;;21.15;13.10;;;;;;;;;;5035272;28;20065;-69
2021/12/16 16:23:09;;;;;;;21.60;11.88;;;;;;;;;;5033741;28;20034;-69
2021/12/16 16:25:35;;;;;;;26.80;14.52;;;;;;;;;;5034979;28;20014;-69
2021/12/16 16:28:02;;;;;;;25.95;15.10;;;;;;;;;;5035131;28;20107;-70
2021/12/16 16:30:29;;;;;;;34.25;18.95;;;;;;;;;;5035184;28;20032;-70
2021/12/16 16:33:13;;;;;;;28.23;15.68;;;;;;;;;;5034814;28;20101;-70
2021/12/16 16:35:45;;;;;;;30.23;16.05;;;;;;;;;;5035181;28;20017;-70
2021/12/16 16:38:16;;;;;;;26.33;14.07;;;;;;;;;;5035207;28;20032;-69
2021/12/16 16:40:43;;;;;;;23.35;13.23;;;;;;;;;;5034748;28;20039;-71
2021/12/16 16:43:18;;;;;;;24.80;13.73;;;;;;;;;;5035011;28;20021;-70
2021/12/16 16:45:44;;;;;;;29.85;15.57;;;;;;;;;;5035482;28;20420;-70
2021/12/16 16:48:31;;;;;;;35.45;18.17;;;;;;;;;;5029193;28;20076;-69
2021/12/16 16:51:07;;;;;;;29.63;15.55;;;;;;;;;;5034442;28;20045;-69
2021/12/16 16:53:43;;;;;;;40.05;18.33;;;;;;;;;;5034076;28;20032;-70
2021/12/16 16:56:09;;;;;;;31.25;17.33;;;;;;;;;;5034659;28;20379;-71
2021/12/16 16:58:35;;;;;;;25.92;14.85;;;;;;;;;;5034484;28;20017;-70
2021/12/16 17:01:02;;;;;;;24.15;13.38;;;;;;;;;;5033744;28;20093;-69
2021/12/16 17:03:28;;;;;;;27.73;15.02;;;;;;;;;;5033762;28;20536;-70
2021/12/16 17:05:59;;;;;;;27.15;15.77;;;;;;;;;;5024922;28;20021;-67
2021/12/16 17:08:29;;;;;;;19.85;12.15;;;;;;;;;;5018083;28;20021;-69
2021/12/16 17:11:03;;;;;;;19.77;10.48;;;;;;;;;;5034173;28;20536;-69
2021/12/16 17:18:55;;;;;;;23.23;13.68;;;;;;;;;;5033824;28;20038;-68
2021/12/16 17:21:29;;;;;;;31.42;17.98;;;;;;;;;;5033528;28;20082;-67
2021/12/16 17:24:01;;;;;;;30.75;18.02;;;;;;;;;;5033862;28;20034;-69
2021/12/16 17:26:31;;;;;;;24.83;13.35;;;;;;;;;;5033956;28;20067;-70
2021/12/16 17:28:58;;;;;;;30.58;17.08;;;;;;;;;;5033445;28;20034;-69
2021/12/16 17:31:41;;;;;;;22.80;12.73;;;;;;;;;;5033643;28;20045;-71
2021/12/16 17:34:18;;;;;;;24.25;13.75;;;;;;;;;;5022769;28;20032;-69
2021/12/16 17:36:45;;;;;;;20.95;12.40;;;;;;;;;;5031055;28;20414;-69
2021/12/16 17:39:14;;;;;;;19.50;11.45;;;;;;;;;;5032285;28;20397;-71
2021/12/16 17:41:41;;;;;;;19.70;10.02;;;;;;;;;;5033377;28;20033;-70
2021/12/16 17:44:14;;;;;;;17.20;10.00;;;;;;;;;;5031852;28;20060;-70
2021/12/16 17:46:40;;;;;;;;;;;;;;;;;;5033137;28;20017;-70
2021/12/16 17:49:07;;;;;;;26.13;14.88;;;;;;;;;;5033108;28;20289;-71
2021/12/16 17:51:33;;;;;;;22.75;13.48;;;;;;;;;;5033566;28;20021;-70
2021/12/16 17:54:03;;;;;;;25.80;13.10;;;;;;;;;;5033561;28;20071;-70
2021/12/16 17:56:30;;;;;;;25.55;12.98;;;;;;;;;;5031490;28;20089;-70
2021/12/16 17:58:59;;;;;;;24.85;12.98;;;;;;;;;;5032673;28;20022;-69
2021/12/16 18:01:33;;;;;;;20.42;12.70;;;;;;;;;;5033226;28;20021;-70
2021/12/16 18:04:08;;;;;;;26.95;14.73;;;;;;;;;;5032866;28;20557;-70
2021/12/16 18:06:56;;;;;;;25.20;13.35;;;;;;;;;;5033516;28;20389;-70
2021/12/16 18:09:28;;;;;;;23.58;13.27;;;;;;;;;;5033395;28;20080;-71
2021/12/16 18:11:57;;;;;;;32.65;15.45;;;;;;;;;;5033146;28;20024;-70
2021/12/16 18:14:27;;;;;;;26.85;13.88;;;;;;;;;;5032083;28;20025;-70
2021/12/16 18:16:56;;;;;;;25.80;14.00;;;;;;;;;;5033683;28;20104;-70
2021/12/16 18:19:25;;;;;;;47.13;21.45;;;;;;;;;;5032489;28;20107;-70
2021/12/16 18:21:53;;;;;;;40.45;20.23;;;;;;;;;;5033165;28;20101;-70
2021/12/16 18:24:20;;;;;;;38.45;17.55;;;;;;;;;;5032773;28;20582;-71
2021/12/16 18:26:49;;;;;;;28.67;14.00;;;;;;;;;;5039494;28;20394;-70